Unlu-5 — TCON5 — position and weather

sailwx.info

Track history (hours):
 
Tides and Currents Weather Stations Pressure Air Temp Water Temp Dewpoint Dewpoint Depression Visibility Wind Speed Wind Dir Waves Ship Positions

Unlu-5

Last reported at 2017-Jun-21 20:07 UTC. Time now 2017-Jun-26 08:49 UTC.
Position N 46°15' E 030°54'.

Length 99 m; draft 3.6 m.

Type: Ship. MMSI: 271000854.

Date/timePositionNaut miles runAvg speedWind from/ knotsBaromVisibWave heightAir tempDewpointWater temp
2017-Jun-21 20:07N 46°15' E 030°54'1 7.8
2017-Jun-21 19:59N 46°16' E 030°54'7 7.6
2017-Jun-21 19:06N 46°23' E 030°56'4 7.7
2017-Jun-21 18:38N 46°26' E 030°56'1 7.8
2017-Jun-21 18:30N 46°27' E 030°56'4 7.9
2017-Jun-21 18:00N 46°31' E 030°55'12 6.3
2017-Jun-21 16:06N 46°35' E 031°12'1 7.5
2017-Jun-21 16:00N 46°35' E 031°13'4 7.3
2017-Jun-21 15:29N 46°35' E 031°18'3 6.9
2017-Jun-21 15:00N 46°35' E 031°23'3 6.7
2017-Jun-21 14:30N 46°35' E 031°28'6 5.9
2017-Jun-21 13:30N 46°35' E 031°37'7 6.6
2017-Jun-21 12:25N 46°36' E 031°47'4 6.6
2017-Jun-21 11:45N 46°37' E 031°53'2 6.8
2017-Jun-21 11:30N 46°38' E 031°55'3 6.6
2017-Jun-21 11:00N 46°42' E 031°56'3 6.8
2017-Jun-21 10:30N 46°45' E 031°54'3 6.1
2017-Jun-21 10:00N 46°48' E 031°53'3 6.2
2017-Jun-21 09:31N 46°50' E 031°56'3 6.7
2017-Jun-21 09:00N 46°53' E 031°59'3 7.0
2017-Jun-21 08:30N 46°56' E 032°01'1 1.8
2017-Jun-21 07:58N 46°57' E 032°01'0 0.0
2017-Jun-21 07:28N 46°57' E 032°01'0 0.0
2017-Jun-21 06:58N 46°57' E 032°01'0 0.0
2017-Jun-21 06:28N 46°57' E 032°01'0 0.0
2017-Jun-21 05:58N 46°57' E 032°01'0 0.0
2017-Jun-21 05:28N 46°57' E 032°01'0 0.0
2017-Jun-21 04:58N 46°57' E 032°00'0 0.0
2017-Jun-21 04:28N 46°57' E 032°00'0 0.0
2017-Jun-21 03:58N 46°57' E 032°01'0 0.0
2017-Jun-21 03:28N 46°57' E 032°01'0 0.0
2017-Jun-21 02:58N 46°57' E 032°01'0 0.0
2017-Jun-21 02:28N 46°57' E 032°01'0 0.0
2017-Jun-21 01:58N 46°57' E 032°01'0 0.0
2017-Jun-21 01:28N 46°57' E 032°00'0 0.0
2017-Jun-21 00:58N 46°57' E 032°01'0 0.0
2017-Jun-21 00:28N 46°57' E 032°01'0 0.0
2017-Jun-20 23:58N 46°57' E 032°01'0 0.0
2017-Jun-20 23:28N 46°57' E 032°01'0 0.0
2017-Jun-20 22:58N 46°57' E 032°00'0 0.0
2017-Jun-20 22:28N 46°57' E 032°01'0 0.0
2017-Jun-20 21:58N 46°57' E 032°01'0 0.0
2017-Jun-20 21:28N 46°57' E 032°01'0 0.0
2017-Jun-20 20:58N 46°57' E 032°00'0 0.0
2017-Jun-20 20:28N 46°57' E 032°01'0 0.0
2017-Jun-20 19:58N 46°57' E 032°01'0 0.0
2017-Jun-20 19:28N 46°57' E 032°01'0 0.0
2017-Jun-20 18:58N 46°57' E 032°00'0 0.0
2017-Jun-20 18:28N 46°57' E 032°01'0 0.0
2017-Jun-20 17:58N 46°57' E 032°01'0 0.0
2017-Jun-20 17:28N 46°57' E 032°01'0 0.0
2017-Jun-20 16:58N 46°57' E 032°01'0 0.0
2017-Jun-20 16:28N 46°57' E 032°00'0 0.0
2017-Jun-20 15:58N 46°57' E 032°00'0 0.0
2017-Jun-20 15:28N 46°57' E 032°01'0 0.0
2017-Jun-20 14:55N 46°57' E 032°01'0 0.0
2017-Jun-20 13:58N 46°57' E 032°01'0 0.0
2017-Jun-20 13:28N 46°57' E 032°01'0 0.0
2017-Jun-20 12:58N 46°57' E 032°01'0 0.0
2017-Jun-20 12:28N 46°57' E 032°01'0 0.0
2017-Jun-20 11:58N 46°57' E 032°01'0 0.0
2017-Jun-20 11:28N 46°57' E 032°01'0 0.0
2017-Jun-20 11:01N 46°57' E 032°01'0 0.0
2017-Jun-20 10:31N 46°57' E 032°00'0 0.0
2017-Jun-20 10:00N 46°57' E 032°00'0 0.0
2017-Jun-20 09:31N 46°57' E 032°01'0 0.0
2017-Jun-20 09:00N 46°57' E 032°01'0 0.0
2017-Jun-20 08:31N 46°57' E 032°01'0 0.0
2017-Jun-20 08:01N 46°57' E 032°01'0 0.0
2017-Jun-20 07:30N 46°57' E 032°01'0 0.0
2017-Jun-20 07:00N 46°57' E 032°01'0 0.0
2017-Jun-20 06:30N 46°57' E 032°01'0 0.0
2017-Jun-20 06:00N 46°57' E 032°01'0 0.0
2017-Jun-20 05:31N 46°57' E 032°01'0 0.0
2017-Jun-20 05:00N 46°57' E 032°00'0 0.0
2017-Jun-20 04:31N 46°57' E 032°00'0 0.0
2017-Jun-20 04:00N 46°57' E 032°01'0 0.0
2017-Jun-20 03:31N 46°57' E 032°01'0 0.0
2017-Jun-20 03:01N 46°57' E 032°01'0 0.0
2017-Jun-20 02:31N 46°57' E 032°01'0 0.0
2017-Jun-20 02:00N 46°57' E 032°01'0 0.0
2017-Jun-20 01:31N 46°57' E 032°00'0 0.0
2017-Jun-20 01:01N 46°57' E 032°01'0 0.0
2017-Jun-20 00:31N 46°57' E 032°01'0 0.0
2017-Jun-20 00:01N 46°57' E 032°01'0 0.0
2017-Jun-19 23:31N 46°57' E 032°01'0 0.0
2017-Jun-19 23:00N 46°57' E 032°00'1 1.8
2017-Jun-19 22:30N 46°56' E 032°01'4 7.1
2017-Jun-19 22:01N 46°53' E 031°59'5 9.0
2017-Jun-19 21:31N 46°49' E 031°55'4 8.2
2017-Jun-19 21:00N 46°45' E 031°54'4 7.7
2017-Jun-19 20:31N 46°42' E 031°56'4 8.4
2017-Jun-19 20:01N 46°38' E 031°54'4 8.6
2017-Jun-19 19:30N 46°36' E 031°49'4 8.5
2017-Jun-19 19:00N 46°36' E 031°42'4 8.4
2017-Jun-19 18:30N 46°35' E 031°36'5 7.5
2017-Jun-19 17:53N 46°36' E 031°29'3 8.7
2017-Jun-19 17:30N 46°35' E 031°25'4 8.8
2017-Jun-19 17:00N 46°35' E 031°18'13 8.1
2017-Jun-19 15:21N 46°33' E 030°59'3 8.2
2017-Jun-19 15:00N 46°30' E 030°57'6 8.8
2017-Jun-19 14:16N 46°24' E 030°57'8 8.9
2017-Jun-19 13:23N 46°16' E 030°57'  
Track history (hours):
 
Tides and Currents Weather Stations Pressure Air Temp Water Temp Dewpoint Dewpoint Depression Visibility Wind Speed Wind Dir Waves Ship Positions

Unlu-5

Last reported at 2017-Jun-21 20:07 UTC. Time now 2017-Jun-26 08:49 UTC.
Position N 46°15' E 030°54'.

Length 99 m; draft 3.6 m.

Type: Ship. MMSI: 271000854.

Date/timePositionNaut miles runAvg speedWind from/ knotsBaromVisibWave heightAir tempDewpointWater temp
2017-Jun-21 20:07N 46°15' E 030°54'1 7.8
2017-Jun-21 19:59N 46°16' E 030°54'7 7.6
2017-Jun-21 19:06N 46°23' E 030°56'4 7.7
2017-Jun-21 18:38N 46°26' E 030°56'1 7.8
2017-Jun-21 18:30N 46°27' E 030°56'4 7.9
2017-Jun-21 18:00N 46°31' E 030°55'12 6.3
2017-Jun-21 16:06N 46°35' E 031°12'1 7.5
2017-Jun-21 16:00N 46°35' E 031°13'4 7.3
2017-Jun-21 15:29N 46°35' E 031°18'3 6.9
2017-Jun-21 15:00N 46°35' E 031°23'3 6.7
2017-Jun-21 14:30N 46°35' E 031°28'6 5.9
2017-Jun-21 13:30N 46°35' E 031°37'7 6.6
2017-Jun-21 12:25N 46°36' E 031°47'4 6.6
2017-Jun-21 11:45N 46°37' E 031°53'2 6.8
2017-Jun-21 11:30N 46°38' E 031°55'3 6.6
2017-Jun-21 11:00N 46°42' E 031°56'3 6.8
2017-Jun-21 10:30N 46°45' E 031°54'3 6.1
2017-Jun-21 10:00N 46°48' E 031°53'3 6.2
2017-Jun-21 09:31N 46°50' E 031°56'3 6.7
2017-Jun-21 09:00N 46°53' E 031°59'3 7.0
2017-Jun-21 08:30N 46°56' E 032°01'1 1.8
2017-Jun-21 07:58N 46°57' E 032°01'0 0.0
2017-Jun-21 07:28N 46°57' E 032°01'0 0.0
2017-Jun-21 06:58N 46°57' E 032°01'0 0.0
2017-Jun-21 06:28N 46°57' E 032°01'0 0.0
2017-Jun-21 05:58N 46°57' E 032°01'0 0.0
2017-Jun-21 05:28N 46°57' E 032°01'0 0.0
2017-Jun-21 04:58N 46°57' E 032°00'0 0.0
2017-Jun-21 04:28N 46°57' E 032°00'0 0.0
2017-Jun-21 03:58N 46°57' E 032°01'0 0.0
2017-Jun-21 03:28N 46°57' E 032°01'0 0.0
2017-Jun-21 02:58N 46°57' E 032°01'0 0.0
2017-Jun-21 02:28N 46°57' E 032°01'0 0.0
2017-Jun-21 01:58N 46°57' E 032°01'0 0.0
2017-Jun-21 01:28N 46°57' E 032°00'0 0.0
2017-Jun-21 00:58N 46°57' E 032°01'0 0.0
2017-Jun-21 00:28N 46°57' E 032°01'0 0.0
2017-Jun-20 23:58N 46°57' E 032°01'0 0.0
2017-Jun-20 23:28N 46°57' E 032°01'0 0.0
2017-Jun-20 22:58N 46°57' E 032°00'0 0.0
2017-Jun-20 22:28N 46°57' E 032°01'0 0.0
2017-Jun-20 21:58N 46°57' E 032°01'0 0.0
2017-Jun-20 21:28N 46°57' E 032°01'0 0.0
2017-Jun-20 20:58N 46°57' E 032°00'0 0.0
2017-Jun-20 20:28N 46°57' E 032°01'0 0.0
2017-Jun-20 19:58N 46°57' E 032°01'0 0.0
2017-Jun-20 19:28N 46°57' E 032°01'0 0.0
2017-Jun-20 18:58N 46°57' E 032°00'0 0.0
2017-Jun-20 18:28N 46°57' E 032°01'0 0.0
2017-Jun-20 17:58N 46°57' E 032°01'0 0.0
2017-Jun-20 17:28N 46°57' E 032°01'0 0.0
2017-Jun-20 16:58N 46°57' E 032°01'0 0.0
2017-Jun-20 16:28N 46°57' E 032°00'0 0.0
2017-Jun-20 15:58N 46°57' E 032°00'0 0.0
2017-Jun-20 15:28N 46°57' E 032°01'0 0.0
2017-Jun-20 14:55N 46°57' E 032°01'0 0.0
2017-Jun-20 13:58N 46°57' E 032°01'0 0.0
2017-Jun-20 13:28N 46°57' E 032°01'0 0.0
2017-Jun-20 12:58N 46°57' E 032°01'0 0.0
2017-Jun-20 12:28N 46°57' E 032°01'0 0.0
2017-Jun-20 11:58N 46°57' E 032°01'0 0.0
2017-Jun-20 11:28N 46°57' E 032°01'0 0.0
2017-Jun-20 11:01N 46°57' E 032°01'0 0.0
2017-Jun-20 10:31N 46°57' E 032°00'0 0.0
2017-Jun-20 10:00N 46°57' E 032°00'0 0.0
2017-Jun-20 09:31N 46°57' E 032°01'0 0.0
2017-Jun-20 09:00N 46°57' E 032°01'0 0.0
2017-Jun-20 08:31N 46°57' E 032°01'0 0.0
2017-Jun-20 08:01N 46°57' E 032°01'0 0.0
2017-Jun-20 07:30N 46°57' E 032°01'0 0.0
2017-Jun-20 07:00N 46°57' E 032°01'0 0.0
2017-Jun-20 06:30N 46°57' E 032°01'0 0.0
2017-Jun-20 06:00N 46°57' E 032°01'0 0.0
2017-Jun-20 05:31N 46°57' E 032°01'0 0.0
2017-Jun-20 05:00N 46°57' E 032°00'0 0.0
2017-Jun-20 04:31N 46°57' E 032°00'0 0.0
2017-Jun-20 04:00N 46°57' E 032°01'0 0.0
2017-Jun-20 03:31N 46°57' E 032°01'0 0.0
2017-Jun-20 03:01N 46°57' E 032°01'0 0.0
2017-Jun-20 02:31N 46°57' E 032°01'0 0.0
2017-Jun-20 02:00N 46°57' E 032°01'0 0.0
2017-Jun-20 01:31N 46°57' E 032°00'0 0.0
2017-Jun-20 01:01N 46°57' E 032°01'0 0.0
2017-Jun-20 00:31N 46°57' E 032°01'0 0.0
2017-Jun-20 00:01N 46°57' E 032°01'0 0.0
2017-Jun-19 23:31N 46°57' E 032°01'0 0.0
2017-Jun-19 23:00N 46°57' E 032°00'1 1.8
2017-Jun-19 22:30N 46°56' E 032°01'4 7.1
2017-Jun-19 22:01N 46°53' E 031°59'5 9.0
2017-Jun-19 21:31N 46°49' E 031°55'4 8.2
2017-Jun-19 21:00N 46°45' E 031°54'4 7.7
2017-Jun-19 20:31N 46°42' E 031°56'4 8.4
2017-Jun-19 20:01N 46°38' E 031°54'4 8.6
2017-Jun-19 19:30N 46°36' E 031°49'4 8.5
2017-Jun-19 19:00N 46°36' E 031°42'4 8.4
2017-Jun-19 18:30N 46°35' E 031°36'5 7.5
2017-Jun-19 17:53N 46°36' E 031°29'3 8.7
2017-Jun-19 17:30N 46°35' E 031°25'4 8.8
2017-Jun-19 17:00N 46°35' E 031°18'13 8.1
2017-Jun-19 15:21N 46°33' E 030°59'3 8.2
2017-Jun-19 15:00N 46°30' E 030°57'6 8.8
2017-Jun-19 14:16N 46°24' E 030°57'8 8.9
2017-Jun-19 13:23N 46°16' E 030°57'  

Dump ship's entire track history